createdAt,value
2018-03-04T00:02:04.597Z,2.02
2018-03-04T00:04:32.261Z,2.22
2018-03-04T00:06:59.876Z,2.36
2018-03-04T00:09:27.537Z,1.98
2018-03-04T00:11:55.162Z,2.03
2018-03-04T00:14:22.852Z,2.17
2018-03-04T00:16:50.508Z,2.37
2018-03-04T00:19:18.183Z,2.30
2018-03-04T00:21:45.820Z,2.38
2018-03-04T00:24:13.479Z,2.26
2018-03-04T00:26:41.103Z,2.16
2018-03-04T00:29:08.759Z,2.08
2018-03-04T00:31:36.403Z,2.00
2018-03-04T00:34:04.011Z,1.96
2018-03-04T00:36:31.668Z,2.11
2018-03-04T00:38:59.288Z,2.39
2018-03-04T00:41:26.960Z,2.43
2018-03-04T00:43:54.600Z,2.26
2018-03-04T00:46:22.260Z,2.27
2018-03-04T00:48:49.873Z,2.26
2018-03-04T00:51:17.544Z,2.41
2018-03-04T00:53:45.171Z,2.18
2018-03-04T00:56:12.821Z,2.09
2018-03-04T00:58:40.460Z,2.18
2018-03-04T01:01:08.121Z,2.23
2018-03-04T01:03:35.748Z,2.19
2018-03-04T01:06:03.392Z,2.24
2018-03-04T01:08:31.003Z,2.32
2018-03-04T01:10:58.710Z,2.43
2018-03-04T01:13:26.374Z,2.30
2018-03-04T01:15:54.026Z,2.23
2018-03-04T01:18:21.632Z,2.23
2018-03-04T01:20:49.297Z,2.20
2018-03-04T01:23:16.918Z,2.10
2018-03-04T01:25:44.576Z,1.95
2018-03-04T01:28:12.232Z,1.97
2018-03-04T01:30:40.131Z,2.00
2018-03-04T01:33:07.774Z,2.11
2018-03-04T01:35:35.443Z,2.29
2018-03-04T01:38:03.065Z,2.22
2018-03-04T01:40:30.708Z,2.26
2018-03-04T01:42:58.368Z,2.09
2018-03-04T01:45:26.011Z,2.09
2018-03-04T01:47:53.620Z,1.99
2018-03-04T01:50:21.270Z,1.88
2018-03-04T01:52:48.885Z,2.05
2018-03-04T01:55:16.531Z,2.17
2018-03-04T01:57:44.144Z,2.28
2018-03-04T02:00:11.819Z,1.99
2018-03-04T02:02:39.420Z,1.84
2018-03-04T02:05:07.089Z,1.84
2018-03-04T02:07:34.736Z,2.29
2018-03-04T02:10:02.396Z,2.38
2018-03-04T02:12:30.022Z,2.61
2018-03-04T02:14:57.692Z,2.68
2018-03-04T02:17:25.317Z,2.43
2018-03-04T02:19:52.999Z,2.27
2018-03-04T02:22:20.616Z,2.26
2018-03-04T02:24:48.286Z,2.31
2018-03-04T02:27:15.913Z,2.38
2018-03-04T02:29:43.583Z,2.48
2018-03-04T02:32:11.189Z,2.71
2018-03-04T02:34:38.808Z,2.74
2018-03-04T02:37:06.456Z,2.52
2018-03-04T02:39:34.074Z,2.40
2018-03-04T02:42:01.741Z,2.44
2018-03-04T02:44:29.353Z,2.55
2018-03-04T02:46:57.005Z,2.74
2018-03-04T02:49:24.617Z,2.81
2018-03-04T02:51:52.297Z,2.75
2018-03-04T02:54:19.913Z,2.71
2018-03-04T02:56:47.560Z,2.72
2018-03-04T02:59:15.179Z,2.74
2018-03-04T03:01:42.828Z,2.78
2018-03-04T03:04:10.445Z,2.77
2018-03-04T03:06:38.109Z,2.83
2018-03-04T03:09:05.723Z,2.82
2018-03-04T03:11:33.381Z,2.92
2018-03-04T03:14:00.995Z,2.98
2018-03-04T03:16:29.316Z,3.02
2018-03-04T03:18:56.988Z,2.95
2018-03-04T03:21:24.649Z,3.06
2018-03-04T03:23:52.263Z,3.09
2018-03-04T03:26:19.912Z,3.09
2018-03-04T03:28:47.534Z,3.02
2018-03-04T03:31:15.193Z,2.73
2018-03-04T03:33:42.824Z,2.54
2018-03-04T03:36:10.477Z,2.33
2018-03-04T03:38:38.087Z,2.10
2018-03-04T03:41:05.744Z,1.98
2018-03-04T03:43:33.359Z,2.08
2018-03-04T03:46:01.109Z,2.09
2018-03-04T03:48:28.744Z,2.06
2018-03-04T03:50:56.433Z,1.94
2018-03-04T03:53:24.044Z,2.06
2018-03-04T03:55:51.692Z,2.10
2018-03-04T03:58:19.310Z,2.08
2018-03-04T04:00:46.967Z,2.06
2018-03-04T04:03:14.569Z,2.06
2018-03-04T04:05:42.216Z,1.86
2018-03-04T04:08:09.828Z,1.83
2018-03-04T04:10:37.484Z,1.87
2018-03-04T04:13:05.128Z,2.00
2018-03-04T04:15:32.791Z,2.15
2018-03-04T04:18:00.403Z,2.06
2018-03-04T04:20:28.065Z,2.10
2018-03-04T04:22:55.673Z,2.18
2018-03-04T04:25:23.347Z,2.16
2018-03-04T04:27:50.948Z,2.14
2018-03-04T04:30:18.597Z,2.16
2018-03-04T04:32:46.217Z,2.16
2018-03-04T04:35:13.867Z,2.28
2018-03-04T04:37:41.495Z,2.23
2018-03-04T04:40:09.111Z,2.17
2018-03-04T04:42:36.780Z,2.07
2018-03-04T04:45:04.397Z,2.22
2018-03-04T04:47:32.066Z,2.45
2018-03-04T04:49:59.677Z,2.44
2018-03-04T04:52:27.337Z,2.50
2018-03-04T04:54:54.971Z,2.52
2018-03-04T04:57:22.623Z,2.80
2018-03-04T04:59:50.244Z,2.81
2018-03-04T05:02:17.915Z,2.96
2018-03-04T05:04:45.824Z,3.19
2018-03-04T05:07:13.480Z,3.24
2018-03-04T05:09:41.107Z,3.16
2018-03-04T05:12:08.763Z,3.18
2018-03-04T05:14:36.372Z,2.96
2018-03-04T05:17:04.022Z,2.82
2018-03-04T05:19:31.634Z,3.01
2018-03-04T05:21:59.285Z,3.15
2018-03-04T05:24:26.913Z,3.18
2018-03-04T05:26:54.573Z,3.19
2018-03-04T05:29:22.191Z,3.28
2018-03-04T05:31:49.843Z,3.26
2018-03-04T05:34:17.456Z,3.24
2018-03-04T05:36:45.116Z,3.00
2018-03-04T05:39:12.753Z,2.90
2018-03-04T05:41:40.408Z,2.81
2018-03-04T05:44:08.031Z,2.73
2018-03-04T05:46:35.684Z,2.70
2018-03-04T05:49:03.329Z,2.39
2018-03-04T05:51:30.995Z,2.20
2018-03-04T05:53:58.619Z,2.35
2018-03-04T05:56:26.276Z,2.36
2018-03-04T05:58:53.906Z,2.45
2018-03-04T06:01:21.562Z,2.73
2018-03-04T06:03:49.177Z,2.88
2018-03-04T06:06:16.849Z,2.90
2018-03-04T06:08:44.732Z,2.85
2018-03-04T06:11:12.456Z,2.94
2018-03-04T06:13:40.069Z,2.76
2018-03-04T06:16:07.730Z,2.45
2018-03-04T06:18:35.404Z,2.26
2018-03-04T06:21:03.067Z,2.28
2018-03-04T06:23:30.685Z,2.43
2018-03-04T06:25:58.353Z,2.46
2018-03-04T06:28:25.971Z,2.44
2018-03-04T06:30:53.635Z,2.54
2018-03-04T06:33:21.240Z,2.58
2018-03-04T06:35:48.933Z,2.82
2018-03-04T06:38:16.549Z,3.09
2018-03-04T06:40:44.247Z,3.11
2018-03-04T06:43:11.877Z,2.88
2018-03-04T06:45:39.488Z,2.85
2018-03-04T06:48:07.141Z,2.88
2018-03-04T06:50:34.759Z,2.75
2018-03-04T06:53:02.411Z,2.63
2018-03-04T06:55:30.028Z,2.51
2018-03-04T06:57:57.701Z,2.59
2018-03-04T07:00:25.384Z,2.70
2018-03-04T07:02:53.045Z,2.54
2018-03-04T07:05:20.662Z,2.32
2018-03-04T07:07:48.361Z,2.33
2018-03-04T07:10:15.984Z,2.37
2018-03-04T07:12:43.672Z,2.60
2018-03-04T07:15:11.280Z,2.72
2018-03-04T07:17:38.932Z,2.72
2018-03-04T07:20:06.632Z,2.64
2018-03-04T07:22:34.280Z,2.49
2018-03-04T07:25:01.901Z,2.60
2018-03-04T07:27:29.555Z,2.57
2018-03-04T07:29:57.163Z,2.52
2018-03-04T07:32:24.820Z,2.74
2018-03-04T07:34:52.428Z,2.82
2018-03-04T07:37:20.107Z,2.83
2018-03-04T07:39:47.711Z,2.83
2018-03-04T07:42:15.356Z,2.81
2018-03-04T07:44:42.971Z,2.86
2018-03-04T07:47:10.640Z,2.84
2018-03-04T07:49:38.264Z,2.96
2018-03-04T07:52:05.956Z,2.96
2018-03-04T07:54:33.572Z,3.09
2018-03-04T07:57:01.224Z,3.02
2018-03-04T07:59:28.844Z,2.83
2018-03-04T08:01:56.505Z,2.89
2018-03-04T08:04:24.123Z,2.86
2018-03-04T08:06:51.785Z,3.18
2018-03-04T08:09:19.427Z,3.26
2018-03-04T08:11:47.081Z,3.41
2018-03-04T08:14:14.704Z,3.52
2018-03-04T08:16:42.373Z,3.39
2018-03-04T08:19:09.997Z,3.35
2018-03-04T08:21:37.676Z,3.36
2018-03-04T08:24:05.293Z,3.23
2018-03-04T08:26:44.718Z,3.21
2018-03-04T08:29:12.345Z,3.09
2018-03-04T08:31:39.992Z,2.75
2018-03-04T08:34:07.608Z,2.58
2018-03-04T08:36:35.267Z,2.50
2018-03-04T08:39:02.900Z,2.59
2018-03-04T08:41:30.549Z,2.75
2018-03-04T08:43:58.190Z,2.88
2018-03-04T08:46:25.933Z,2.87
2018-03-04T08:48:53.587Z,2.95
2018-03-04T08:51:21.195Z,3.00
2018-03-04T08:53:48.869Z,3.14
2018-03-04T08:56:16.478Z,3.49
2018-03-04T08:58:44.194Z,3.81
2018-03-04T09:01:11.831Z,3.91
2018-03-04T09:03:39.536Z,3.95
2018-03-04T09:06:07.159Z,3.98
2018-03-04T09:08:34.820Z,3.88
2018-03-04T09:11:02.435Z,3.66
2018-03-04T09:13:30.092Z,3.75
2018-03-04T09:15:57.721Z,3.85
2018-03-04T09:18:25.392Z,3.77
2018-03-04T09:20:53.009Z,4.00
2018-03-04T09:23:20.699Z,4.07
2018-03-04T09:25:48.409Z,4.07
2018-03-04T09:28:16.068Z,3.68
2018-03-04T09:30:43.683Z,3.84
2018-03-04T09:33:11.435Z,3.76
2018-03-04T09:35:39.055Z,3.84
2018-03-04T09:38:06.732Z,3.77
2018-03-04T09:40:34.364Z,3.61
2018-03-04T09:43:02.016Z,3.65
2018-03-04T09:45:29.637Z,3.94
2018-03-04T09:47:57.295Z,3.83
2018-03-04T09:50:24.929Z,3.70
2018-03-04T09:52:52.585Z,3.55
2018-03-04T09:55:20.202Z,3.70
2018-03-04T09:57:48.275Z,3.57
2018-03-04T10:00:15.920Z,3.80
2018-03-04T10:02:43.579Z,3.72
2018-03-04T10:05:11.191Z,3.67
2018-03-04T10:07:38.847Z,3.62
2018-03-04T10:10:06.501Z,3.57
2018-03-04T10:12:34.175Z,3.85
2018-03-04T10:15:01.804Z,3.85
2018-03-04T10:17:29.472Z,3.90
2018-03-04T10:19:57.177Z,4.04
2018-03-04T10:22:24.863Z,4.16
2018-03-04T10:24:52.480Z,4.26
2018-03-04T10:27:20.155Z,4.07
2018-03-04T10:29:47.784Z,4.11
2018-03-04T10:32:15.401Z,4.08
2018-03-04T10:34:43.088Z,4.28
2018-03-04T10:37:10.814Z,4.95
2018-03-04T10:39:38.505Z,4.71
2018-03-04T10:42:06.121Z,4.56
2018-03-04T10:44:33.801Z,4.56
2018-03-04T10:47:01.447Z,4.51
2018-03-04T10:49:29.106Z,4.40
2018-03-04T10:51:56.757Z,4.39
2018-03-04T10:54:24.443Z,4.22
2018-03-04T10:56:52.061Z,4.39
2018-03-04T10:59:19.704Z,4.23
2018-03-04T11:01:52.196Z,4.34
2018-03-04T11:04:19.900Z,4.45
2018-03-04T11:06:47.551Z,4.39
2018-03-04T11:09:15.264Z,4.60
2018-03-04T11:11:42.899Z,4.41
2018-03-04T11:14:10.553Z,4.46
2018-03-04T11:16:38.173Z,4.31
2018-03-04T11:19:05.827Z,4.51
2018-03-04T11:21:33.493Z,5.08
2018-03-04T11:24:01.149Z,5.40
2018-03-04T11:26:28.761Z,5.33
2018-03-04T11:28:56.428Z,5.11
2018-03-04T11:31:24.039Z,5.09
2018-03-04T11:33:51.697Z,4.88
2018-03-04T11:36:19.306Z,5.12
2018-03-04T11:38:46.969Z,5.11
2018-03-04T11:41:14.600Z,5.44
2018-03-04T11:43:42.248Z,5.44
2018-03-04T11:46:09.857Z,5.42
2018-03-04T11:48:37.516Z,5.45
2018-03-04T11:51:05.137Z,5.56
2018-03-04T11:53:32.820Z,5.54
2018-03-04T11:56:00.429Z,5.33
2018-03-04T11:58:28.094Z,5.02
2018-03-04T12:00:55.720Z,5.16
2018-03-04T12:03:23.367Z,5.54
2018-03-04T12:05:51.000Z,5.69
2018-03-04T12:08:18.673Z,5.74
2018-03-04T12:10:46.287Z,6.14
2018-03-04T12:13:13.928Z,6.31
2018-03-04T12:15:41.718Z,6.40
2018-03-04T12:18:09.380Z,6.27
2018-03-04T12:20:37.018Z,6.75
2018-03-04T12:23:04.664Z,6.59
2018-03-04T12:25:32.281Z,6.78
2018-03-04T12:27:59.940Z,7.22
2018-03-04T12:30:27.563Z,6.96
2018-03-04T12:32:55.214Z,6.85
2018-03-04T12:35:22.885Z,6.83
2018-03-04T12:37:50.493Z,6.92
2018-03-04T12:40:18.148Z,7.45
2018-03-04T12:42:45.751Z,7.91
2018-03-04T12:45:13.409Z,7.72
2018-03-04T12:47:41.044Z,7.47
2018-03-04T12:50:08.693Z,7.24
2018-03-04T12:52:36.403Z,7.39
2018-03-04T12:55:04.079Z,7.62
2018-03-04T12:57:31.681Z,7.61
2018-03-04T12:59:59.383Z,7.84
2018-03-04T13:02:27.006Z,7.90
2018-03-04T13:04:54.735Z,8.05
2018-03-04T13:07:22.348Z,8.45
2018-03-04T13:09:49.999Z,8.13
2018-03-04T13:12:17.621Z,7.80
2018-03-04T13:14:45.292Z,7.84
2018-03-04T13:17:12.960Z,7.95
2018-03-04T13:19:40.664Z,8.42
2018-03-04T13:22:08.433Z,8.42
2018-03-04T13:24:36.090Z,8.15
2018-03-04T13:27:03.701Z,7.81
2018-03-04T13:29:31.358Z,7.98
2018-03-04T13:31:59.093Z,8.61
2018-03-04T13:34:26.764Z,9.12
2018-03-04T13:36:54.377Z,9.22
2018-03-04T13:39:22.058Z,9.58
2018-03-04T13:41:49.700Z,9.78
2018-03-04T13:44:17.364Z,9.45
2018-03-04T13:46:44.990Z,9.18
2018-03-04T13:49:12.636Z,8.87
2018-03-04T13:51:40.235Z,8.31
2018-03-04T13:54:07.889Z,8.88
2018-03-04T13:56:35.546Z,9.57
2018-03-04T13:59:03.412Z,9.85
2018-03-04T14:01:31.177Z,10.22
2018-03-04T14:03:59.043Z,10.43
2018-03-04T14:06:26.790Z,10.87
2018-03-04T14:08:54.565Z,10.99
2018-03-04T14:11:22.276Z,11.11
2018-03-04T14:13:50.067Z,11.22
2018-03-04T14:16:17.838Z,11.40
2018-03-04T14:18:45.729Z,11.38
2018-03-04T14:21:13.495Z,10.85
2018-03-04T14:23:41.258Z,10.50
2018-03-04T14:26:08.998Z,10.17
2018-03-04T14:28:36.792Z,10.06
2018-03-04T14:31:04.606Z,9.95
2018-03-04T14:33:32.419Z,9.87
2018-03-04T14:36:00.089Z,9.93
2018-03-04T14:38:27.948Z,10.21
2018-03-04T14:40:55.607Z,10.20
2018-03-04T14:43:23.227Z,10.34
2018-03-04T14:45:50.895Z,10.32
2018-03-04T14:48:18.558Z,10.22
2018-03-04T14:50:46.213Z,10.24
2018-03-04T14:53:13.819Z,10.36
2018-03-04T14:55:41.484Z,10.52
2018-03-04T14:58:09.099Z,10.51
2018-03-04T15:00:36.748Z,10.37
2018-03-04T15:03:04.351Z,10.47
2018-03-04T15:05:32.009Z,10.44
2018-03-04T15:07:59.631Z,10.45
2018-03-04T15:10:27.301Z,10.47
2018-03-04T15:12:54.956Z,10.40
2018-03-04T15:15:22.619Z,10.46
2018-03-04T15:17:50.265Z,10.52
2018-03-04T15:20:17.915Z,10.70
2018-03-04T15:22:45.527Z,10.58
2018-03-04T15:25:13.185Z,10.46
2018-03-04T15:27:40.801Z,10.28
2018-03-04T15:30:08.468Z,10.03
2018-03-04T15:32:36.080Z,9.76
2018-03-04T15:35:03.737Z,9.59
2018-03-04T15:37:31.346Z,9.62
2018-03-04T15:39:59.000Z,9.71
2018-03-04T15:42:26.646Z,9.71
2018-03-04T15:44:54.304Z,9.58
2018-03-04T15:47:21.924Z,9.34
2018-03-04T15:49:49.664Z,9.22
2018-03-04T15:52:17.330Z,9.31
2018-03-04T15:54:45.501Z,9.39
2018-03-04T15:57:13.246Z,9.21
2018-03-04T15:59:40.963Z,9.16
2018-03-04T16:02:08.592Z,9.22
2018-03-04T16:04:36.242Z,9.41
2018-03-04T16:07:03.887Z,9.54
2018-03-04T16:09:31.568Z,9.63
2018-03-04T16:11:59.302Z,9.35
2018-03-04T16:14:26.957Z,9.20
2018-03-04T16:16:54.574Z,9.17
2018-03-04T16:19:22.229Z,9.25
2018-03-04T16:21:49.888Z,9.29
2018-03-04T16:24:17.681Z,9.30
2018-03-04T16:26:45.301Z,9.38
2018-03-04T16:29:13.037Z,9.29
2018-03-04T16:31:40.670Z,9.31
2018-03-04T16:34:08.526Z,9.28
2018-03-04T16:36:36.141Z,9.13
2018-03-04T16:39:03.943Z,9.06
2018-03-04T16:41:31.607Z,8.85
2018-03-04T16:43:59.253Z,8.39
2018-03-04T16:46:26.859Z,8.37
2018-03-04T16:48:54.504Z,8.44
2018-03-04T16:51:22.153Z,8.43
2018-03-04T16:53:49.764Z,8.49
2018-03-04T16:56:17.420Z,8.19
2018-03-04T16:58:45.031Z,8.20
2018-03-04T17:01:12.694Z,8.27
2018-03-04T17:03:40.296Z,8.30
2018-03-04T17:06:07.947Z,8.20
2018-03-04T17:08:35.557Z,8.16
2018-03-04T17:11:03.228Z,8.24
2018-03-04T17:13:30.921Z,8.34
2018-03-04T17:15:58.574Z,8.34
2018-03-04T17:18:26.175Z,8.07
2018-03-04T17:20:53.892Z,7.94
2018-03-04T17:23:21.495Z,7.80
2018-03-04T17:25:49.156Z,7.73
2018-03-04T17:28:16.768Z,7.69
2018-03-04T17:30:44.421Z,7.72
2018-03-04T17:33:12.037Z,7.76
2018-03-04T17:35:39.721Z,7.83
2018-03-04T17:38:07.332Z,7.82
2018-03-04T17:40:34.990Z,7.81
2018-03-04T17:43:02.604Z,7.90
2018-03-04T17:45:30.312Z,7.89
2018-03-04T17:47:57.942Z,8.02
2018-03-04T17:50:25.620Z,7.86
2018-03-04T17:52:53.272Z,7.70
2018-03-04T17:55:20.936Z,7.76
2018-03-04T17:57:48.536Z,7.58
2018-03-04T18:00:16.192Z,7.57
2018-03-04T18:02:43.808Z,7.57
2018-03-04T18:05:11.469Z,7.65
2018-03-04T18:07:39.075Z,7.76
2018-03-04T18:10:06.736Z,7.84
2018-03-04T18:12:34.342Z,7.91
2018-03-04T18:15:02.012Z,7.93
2018-03-04T18:17:29.654Z,8.03
2018-03-04T18:19:57.323Z,8.07
2018-03-04T18:22:24.943Z,8.14
2018-03-04T18:24:52.608Z,7.97
2018-03-04T18:27:20.233Z,7.84
2018-03-04T18:29:47.901Z,7.60
2018-03-04T18:32:15.513Z,7.31
2018-03-04T18:34:43.170Z,6.99
2018-03-04T18:37:10.791Z,7.03
2018-03-04T18:39:38.470Z,7.13
2018-03-04T18:42:06.120Z,7.31
2018-03-04T18:44:33.787Z,7.46
2018-03-04T18:47:01.409Z,7.50
2018-03-04T18:49:29.059Z,7.61
2018-03-04T18:51:56.672Z,7.74
2018-03-04T18:54:24.332Z,7.71
2018-03-04T18:56:52.004Z,7.78
2018-03-04T18:59:19.638Z,7.60
2018-03-04T19:01:47.298Z,7.51
2018-03-04T19:04:14.944Z,7.56
2018-03-04T19:06:42.703Z,7.64
2018-03-04T19:09:10.337Z,7.58
2018-03-04T19:11:38.012Z,7.58
2018-03-04T19:14:05.615Z,7.66
2018-03-04T19:16:33.283Z,7.41
2018-03-04T19:19:00.906Z,7.29
2018-03-04T19:21:28.568Z,7.20
2018-03-04T19:23:56.175Z,7.21
2018-03-04T19:26:23.828Z,7.22
2018-03-04T19:28:51.571Z,7.25
2018-03-04T19:31:19.322Z,7.25
2018-03-04T19:33:46.965Z,7.33
2018-03-04T19:36:15.280Z,7.42
2018-03-04T19:38:42.937Z,7.48
2018-03-04T19:41:10.587Z,7.50
2018-03-04T19:43:38.235Z,7.44
2018-03-04T19:46:05.885Z,7.26
2018-03-04T19:48:33.532Z,7.32
2018-03-04T19:51:01.192Z,7.36
2018-03-04T19:53:28.808Z,7.20
2018-03-04T19:55:56.471Z,6.86
2018-03-04T19:58:24.089Z,7.01
2018-03-04T20:00:51.767Z,7.01
2018-03-04T20:03:19.416Z,6.91
2018-03-04T20:05:47.088Z,7.07
2018-03-04T20:08:14.701Z,6.95
2018-03-04T20:10:42.340Z,6.71
2018-03-04T20:13:10.003Z,6.66
2018-03-04T20:15:37.643Z,6.68
2018-03-04T20:18:05.300Z,6.76
2018-03-04T20:20:32.989Z,6.74
2018-03-04T20:23:00.627Z,6.54
2018-03-04T20:25:28.237Z,6.51
2018-03-04T20:27:55.940Z,5.85
2018-03-04T20:30:23.608Z,5.45
2018-03-04T20:32:51.267Z,5.64
2018-03-04T20:35:18.916Z,5.84
2018-03-04T20:37:46.568Z,6.10
2018-03-04T20:40:14.204Z,6.48
2018-03-04T20:42:41.920Z,6.84
2018-03-04T20:45:09.531Z,7.12
2018-03-04T20:47:37.193Z,7.08
2018-03-04T20:50:04.812Z,7.17
2018-03-04T20:52:32.475Z,7.05
2018-03-04T20:55:00.097Z,7.07
2018-03-04T20:57:27.796Z,7.04
2018-03-04T20:59:55.421Z,7.15
2018-03-04T21:02:23.082Z,7.06
2018-03-04T21:04:50.689Z,7.17
2018-03-04T21:07:18.331Z,7.12
2018-03-04T21:09:45.963Z,7.27
2018-03-04T21:12:13.628Z,7.26
2018-03-04T21:14:41.358Z,7.20
2018-03-04T21:17:09.060Z,7.00
2018-03-04T21:19:36.664Z,6.83
2018-03-04T21:22:04.349Z,6.64
2018-03-04T21:24:31.996Z,6.74
2018-03-04T21:26:59.657Z,6.38
2018-03-04T21:29:28.312Z,6.70
2018-03-04T21:31:56.358Z,6.78
2018-03-04T21:34:23.991Z,6.83
2018-03-04T21:36:51.652Z,6.97
2018-03-04T21:39:19.273Z,6.79
2018-03-04T21:41:46.937Z,6.60
2018-03-04T21:44:14.554Z,6.72
2018-03-04T21:46:42.392Z,6.93
2018-03-04T21:49:10.010Z,6.71
2018-03-04T21:51:37.748Z,6.20
2018-03-04T21:54:05.443Z,6.01
2018-03-04T21:56:33.101Z,5.99
2018-03-04T21:59:00.820Z,6.24
2018-03-04T22:01:28.516Z,6.28
2018-03-04T22:03:56.169Z,5.93
2018-03-04T22:06:23.801Z,6.11
2018-03-04T22:08:51.459Z,6.37
2018-03-04T22:11:19.077Z,6.58
2018-03-04T22:13:46.765Z,6.66
2018-03-04T22:16:14.374Z,6.60
2018-03-04T22:18:42.057Z,6.77
2018-03-04T22:21:09.664Z,6.86
2018-03-04T22:23:37.356Z,7.09
2018-03-04T22:26:05.024Z,7.07
2018-03-04T22:28:32.683Z,7.21
2018-03-04T22:31:00.298Z,7.14
2018-03-04T22:33:27.952Z,7.18
2018-03-04T22:35:55.577Z,7.30
2018-03-04T22:38:23.227Z,7.37
2018-03-04T22:40:50.841Z,7.38
2018-03-04T22:43:18.497Z,7.32
2018-03-04T22:45:46.120Z,6.61
2018-03-04T22:48:13.770Z,6.25
2018-03-04T22:50:41.401Z,5.74
2018-03-04T22:53:09.115Z,5.71
2018-03-04T22:55:36.785Z,5.74
2018-03-04T22:58:04.440Z,5.99
2018-03-04T23:00:32.108Z,6.33
2018-03-04T23:02:59.744Z,6.58
2018-03-04T23:05:27.347Z,6.74
2018-03-04T23:07:55.020Z,6.68
2018-03-04T23:10:22.625Z,6.59
2018-03-04T23:12:50.283Z,6.31
2018-03-04T23:15:17.888Z,6.31
2018-03-04T23:17:46.400Z,6.40
2018-03-04T23:20:14.017Z,6.59
2018-03-04T23:22:41.696Z,6.28
2018-03-04T23:25:09.317Z,6.46
2018-03-04T23:27:36.975Z,5.98
2018-03-04T23:30:04.587Z,6.14
2018-03-04T23:32:32.248Z,5.86
2018-03-04T23:35:00.000Z,6.05
2018-03-04T23:37:27.658Z,5.75
2018-03-04T23:39:55.268Z,5.73
2018-03-04T23:42:22.921Z,5.82
2018-03-04T23:44:50.531Z,5.97
2018-03-04T23:47:18.176Z,5.82
2018-03-04T23:49:45.792Z,5.75
2018-03-04T23:52:13.439Z,5.81
2018-03-04T23:54:41.060Z,5.97
2018-03-04T23:57:08.712Z,6.00
2018-03-04T23:59:36.327Z,6.22
